sensor_id;sensor_type;location;lat;lon;timestamp;pressure;altitude;pressure_sealevel;temperature;humidity
18790;BME280;9523;42.650;23.386;2022-08-16T00:01:49;94190.72;;;18.68;100.00
18790;BME280;9523;42.650;23.386;2022-08-16T00:04:16;94199.38;;;18.61;100.00
18790;BME280;9523;42.650;23.386;2022-08-16T00:06:43;94194.72;;;18.58;100.00
18790;BME280;9523;42.650;23.386;2022-08-16T00:09:11;94206.47;;;18.54;100.00
18790;BME280;9523;42.650;23.386;2022-08-16T00:11:41;94192.91;;;18.47;100.00
18790;BME280;9523;42.650;23.386;2022-08-16T00:14:13;94213.34;;;18.55;100.00
18790;BME280;9523;42.650;23.386;2022-08-16T00:16:40;94198.66;;;18.49;100.00
18790;BME280;9523;42.650;23.386;2022-08-16T00:19:07;94181.09;;;18.32;100.00
18790;BME280;9523;42.650;23.386;2022-08-16T00:21:34;94211.41;;;18.40;100.00
18790;BME280;9523;42.650;23.386;2022-08-16T00:24:01;94212.13;;;18.37;100.00
18790;BME280;9523;42.650;23.386;2022-08-16T00:26:28;94206.00;;;18.36;100.00
18790;BME280;9523;42.650;23.386;2022-08-16T00:28:56;94206.09;;;18.40;100.00
18790;BME280;9523;42.650;23.386;2022-08-16T00:31:23;94210.06;;;18.46;100.00
18790;BME280;9523;42.650;23.386;2022-08-16T00:33:50;94210.06;;;18.46;100.00
18790;BME280;9523;42.650;23.386;2022-08-16T00:36:17;94211.88;;;18.42;100.00
18790;BME280;9523;42.650;23.386;2022-08-16T00:38:44;94197.72;;;18.41;100.00
18790;BME280;9523;42.650;23.386;2022-08-16T00:41:11;94201.25;;;18.45;100.00
18790;BME280;9523;42.650;23.386;2022-08-16T00:43:38;94201.88;;;18.39;100.00
18790;BME280;9523;42.650;23.386;2022-08-16T00:46:11;94194.28;;;18.41;100.00
18790;BME280;9523;42.650;23.386;2022-08-16T00:48:40;94202.31;;;18.41;100.00
18790;BME280;9523;42.650;23.386;2022-08-16T00:51:09;94203.84;;;18.42;100.00
18790;BME280;9523;42.650;23.386;2022-08-16T00:53:35;94223.03;;;18.47;100.00
18790;BME280;9523;42.650;23.386;2022-08-16T00:56:05;94224.19;;;18.46;100.00
18790;BME280;9523;42.650;23.386;2022-08-16T00:58:35;94220.66;;;18.42;100.00
18790;BME280;9523;42.650;23.386;2022-08-16T01:01:03;94223.66;;;18.41;100.00
18790;BME280;9523;42.650;23.386;2022-08-16T01:03:31;94222.81;;;18.37;100.00
18790;BME280;9523;42.650;23.386;2022-08-16T01:06:00;94195.31;;;18.20;100.00
18790;BME280;9523;42.650;23.386;2022-08-16T01:08:27;94218.25;;;18.37;100.00
18790;BME280;9523;42.650;23.386;2022-08-16T01:10:54;94222.03;;;18.36;100.00
18790;BME280;9523;42.650;23.386;2022-08-16T01:13:23;94224.97;;;18.31;100.00
18790;BME280;9523;42.650;23.386;2022-08-16T01:15:55;94205.59;;;18.18;100.00
18790;BME280;9523;42.650;23.386;2022-08-16T01:18:28;94226.44;;;18.28;100.00
18790;BME280;9523;42.650;23.386;2022-08-16T01:21:03;94233.06;;;18.35;100.00
18790;BME280;9523;42.650;23.386;2022-08-16T01:26:08;94245.75;;;18.53;100.00
18790;BME280;9523;42.650;23.386;2022-08-16T01:28:36;94234.25;;;18.37;100.00
18790;BME280;9523;42.650;23.386;2022-08-16T01:31:04;94238.50;;;18.54;100.00
18790;BME280;9523;42.650;23.386;2022-08-16T01:33:32;94237.81;;;18.57;100.00
18790;BME280;9523;42.650;23.386;2022-08-16T01:36:02;94241.53;;;18.52;100.00
18790;BME280;9523;42.650;23.386;2022-08-16T01:38:33;94239.69;;;18.41;100.00
18790;BME280;9523;42.650;23.386;2022-08-16T01:41:04;94229.53;;;18.46;100.00
18790;BME280;9523;42.650;23.386;2022-08-16T01:43:35;94238.56;;;18.42;100.00
18790;BME280;9523;42.650;23.386;2022-08-16T01:46:06;94241.25;;;18.42;100.00
18790;BME280;9523;42.650;23.386;2022-08-16T01:48:34;94240.38;;;18.38;100.00
18790;BME280;9523;42.650;23.386;2022-08-16T01:51:02;94239.00;;;18.44;100.00
18790;BME280;9523;42.650;23.386;2022-08-16T01:53:29;94246.75;;;18.49;100.00
18790;BME280;9523;42.650;23.386;2022-08-16T01:55:56;94246.75;;;18.49;100.00
18790;BME280;9523;42.650;23.386;2022-08-16T01:58:27;94258.50;;;18.60;100.00
18790;BME280;9523;42.650;23.386;2022-08-16T02:00:55;94252.88;;;18.65;100.00
18790;BME280;9523;42.650;23.386;2022-08-16T02:03:26;94244.63;;;18.70;100.00
18790;BME280;9523;42.650;23.386;2022-08-16T02:05:53;94216.59;;;18.64;100.00
18790;BME280;9523;42.650;23.386;2022-08-16T02:08:19;94250.44;;;18.75;100.00
18790;BME280;9523;42.650;23.386;2022-08-16T02:10:46;94261.22;;;18.79;100.00
18790;BME280;9523;42.650;23.386;2022-08-16T02:13:17;94264.34;;;18.81;100.00
18790;BME280;9523;42.650;23.386;2022-08-16T02:15:45;94273.53;;;18.84;100.00
18790;BME280;9523;42.650;23.386;2022-08-16T02:18:16;94278.38;;;18.94;100.00
18790;BME280;9523;42.650;23.386;2022-08-16T02:20:49;94279.22;;;18.98;100.00
18790;BME280;9523;42.650;23.386;2022-08-16T02:23:17;94281.81;;;18.94;100.00
18790;BME280;9523;42.650;23.386;2022-08-16T02:25:45;94295.34;;;19.01;100.00
18790;BME280;9523;42.650;23.386;2022-08-16T02:28:12;94313.97;;;19.13;100.00
18790;BME280;9523;42.650;23.386;2022-08-16T02:30:41;94312.41;;;19.12;100.00
18790;BME280;9523;42.650;23.386;2022-08-16T02:33:09;94338.44;;;19.15;100.00
18790;BME280;9523;42.650;23.386;2022-08-16T02:35:39;94324.59;;;18.94;100.00
18790;BME280;9523;42.650;23.386;2022-08-16T02:38:06;94322.50;;;18.88;100.00
18790;BME280;9523;42.650;23.386;2022-08-16T02:40:33;94331.91;;;18.97;100.00
18790;BME280;9523;42.650;23.386;2022-08-16T02:43:00;94327.44;;;19.01;100.00
18790;BME280;9523;42.650;23.386;2022-08-16T02:45:27;94329.09;;;18.90;100.00
18790;BME280;9523;42.650;23.386;2022-08-16T02:48:00;94320.38;;;18.62;100.00
18790;BME280;9523;42.650;23.386;2022-08-16T02:50:27;94322.19;;;18.89;100.00
18790;BME280;9523;42.650;23.386;2022-08-16T02:52:55;94297.19;;;18.66;100.00
18790;BME280;9523;42.650;23.386;2022-08-16T02:55:25;94314.66;;;18.79;100.00
18790;BME280;9523;42.650;23.386;2022-08-16T02:57:53;94316.41;;;18.71;100.00
18790;BME280;9523;42.650;23.386;2022-08-16T03:00:20;94293.06;;;18.53;100.00
18790;BME280;9523;42.650;23.386;2022-08-16T03:02:46;94319.34;;;18.66;100.00
18790;BME280;9523;42.650;23.386;2022-08-16T03:05:15;94297.91;;;18.63;100.00
18790;BME280;9523;42.650;23.386;2022-08-16T03:07:42;94307.88;;;18.82;100.00
18790;BME280;9523;42.650;23.386;2022-08-16T03:10:12;94305.69;;;18.87;100.00
18790;BME280;9523;42.650;23.386;2022-08-16T03:12:39;94307.00;;;18.93;100.00
18790;BME280;9523;42.650;23.386;2022-08-16T03:15:09;94303.03;;;19.03;100.00
18790;BME280;9523;42.650;23.386;2022-08-16T03:17:36;94290.06;;;19.05;100.00
18790;BME280;9523;42.650;23.386;2022-08-16T03:20:05;94283.97;;;18.89;100.00
18790;BME280;9523;42.650;23.386;2022-08-16T03:22:33;94294.34;;;18.90;100.00
18790;BME280;9523;42.650;23.386;2022-08-16T03:25:04;94292.34;;;18.87;100.00
18790;BME280;9523;42.650;23.386;2022-08-16T03:27:34;94292.78;;;18.89;100.00
18790;BME280;9523;42.650;23.386;2022-08-16T03:30:07;94291.38;;;18.95;100.00
18790;BME280;9523;42.650;23.386;2022-08-16T03:32:34;94286.56;;;18.85;100.00
18790;BME280;9523;42.650;23.386;2022-08-16T03:35:01;94291.91;;;18.85;100.00
18790;BME280;9523;42.650;23.386;2022-08-16T03:37:28;94284.53;;;18.79;100.00
18790;BME280;9523;42.650;23.386;2022-08-16T03:39:54;94287.53;;;18.77;100.00
18790;BME280;9523;42.650;23.386;2022-08-16T03:42:21;94282.44;;;18.72;100.00
18790;BME280;9523;42.650;23.386;2022-08-16T03:44:50;94285.91;;;18.57;100.00
18790;BME280;9523;42.650;23.386;2022-08-16T03:47:16;94294.44;;;18.62;100.00
18790;BME280;9523;42.650;23.386;2022-08-16T03:49:44;94294.84;;;18.80;100.00
18790;BME280;9523;42.650;23.386;2022-08-16T03:52:12;94297.00;;;18.90;100.00
18790;BME280;9523;42.650;23.386;2022-08-16T03:54:39;94291.28;;;18.92;100.00
18790;BME280;9523;42.650;23.386;2022-08-16T03:57:06;94285.84;;;19.04;100.00
18790;BME280;9523;42.650;23.386;2022-08-16T03:59:33;94287.22;;;19.13;100.00
18790;BME280;9523;42.650;23.386;2022-08-16T04:02:01;94288.94;;;19.21;100.00
18790;BME280;9523;42.650;23.386;2022-08-16T04:04:29;94284.50;;;19.29;100.00
18790;BME280;9523;42.650;23.386;2022-08-16T04:06:56;94291.34;;;19.27;100.00
18790;BME280;9523;42.650;23.386;2022-08-16T04:09:23;94280.72;;;19.30;100.00
18790;BME280;9523;42.650;23.386;2022-08-16T04:11:50;94287.25;;;19.33;100.00
18790;BME280;9523;42.650;23.386;2022-08-16T04:14:17;94269.81;;;19.39;100.00
18790;BME280;9523;42.650;23.386;2022-08-16T04:16:44;94282.31;;;19.50;100.00
18790;BME280;9523;42.650;23.386;2022-08-16T04:19:12;94273.66;;;19.41;100.00
18790;BME280;9523;42.650;23.386;2022-08-16T04:21:39;94292.41;;;19.41;100.00
18790;BME280;9523;42.650;23.386;2022-08-16T04:24:08;94285.00;;;19.35;100.00
18790;BME280;9523;42.650;23.386;2022-08-16T04:26:35;94277.66;;;19.32;100.00
18790;BME280;9523;42.650;23.386;2022-08-16T04:29:03;94277.25;;;19.30;100.00
18790;BME280;9523;42.650;23.386;2022-08-16T04:31:30;94288.38;;;19.32;100.00
18790;BME280;9523;42.650;23.386;2022-08-16T04:33:57;94298.13;;;19.24;100.00
18790;BME280;9523;42.650;23.386;2022-08-16T04:36:26;94290.47;;;19.22;100.00
18790;BME280;9523;42.650;23.386;2022-08-16T04:38:54;94300.75;;;19.20;100.00
18790;BME280;9523;42.650;23.386;2022-08-16T04:41:21;94297.22;;;19.16;100.00
18790;BME280;9523;42.650;23.386;2022-08-16T04:43:48;94290.66;;;19.14;100.00
18790;BME280;9523;42.650;23.386;2022-08-16T04:46:16;94288.78;;;19.14;100.00
18790;BME280;9523;42.650;23.386;2022-08-16T04:48:43;94281.16;;;19.16;100.00
18790;BME280;9523;42.650;23.386;2022-08-16T04:51:10;94280.38;;;19.16;100.00
18790;BME280;9523;42.650;23.386;2022-08-16T04:53:39;94269.63;;;19.12;100.00
18790;BME280;9523;42.650;23.386;2022-08-16T04:56:12;94270.09;;;18.99;100.00
18790;BME280;9523;42.650;23.386;2022-08-16T04:58:39;94279.81;;;18.91;100.00
18790;BME280;9523;42.650;23.386;2022-08-16T05:01:06;94292.00;;;18.89;100.00
18790;BME280;9523;42.650;23.386;2022-08-16T05:03:33;94284.00;;;18.73;100.00
18790;BME280;9523;42.650;23.386;2022-08-16T05:06:00;94299.16;;;18.69;100.00
18790;BME280;9523;42.650;23.386;2022-08-16T05:08:32;94300.38;;;18.56;100.00
18790;BME280;9523;42.650;23.386;2022-08-16T05:11:01;94299.72;;;18.59;100.00
18790;BME280;9523;42.650;23.386;2022-08-16T05:13:30;94312.28;;;18.58;100.00
18790;BME280;9523;42.650;23.386;2022-08-16T05:15:56;94307.34;;;18.60;100.00
18790;BME280;9523;42.650;23.386;2022-08-16T05:18:24;94297.38;;;18.57;100.00
18790;BME280;9523;42.650;23.386;2022-08-16T05:20:51;94307.44;;;18.64;100.00
18790;BME280;9523;42.650;23.386;2022-08-16T05:23:18;94300.81;;;18.58;100.00
18790;BME280;9523;42.650;23.386;2022-08-16T05:25:51;94318.50;;;18.78;100.00
18790;BME280;9523;42.650;23.386;2022-08-16T05:28:19;94309.44;;;18.67;100.00
18790;BME280;9523;42.650;23.386;2022-08-16T05:30:46;94323.84;;;18.78;100.00
18790;BME280;9523;42.650;23.386;2022-08-16T05:33:15;94321.25;;;18.82;100.00
18790;BME280;9523;42.650;23.386;2022-08-16T05:35:48;94317.94;;;18.88;100.00
18790;BME280;9523;42.650;23.386;2022-08-16T05:38:15;94307.97;;;18.85;100.00
18790;BME280;9523;42.650;23.386;2022-08-16T05:40:42;94314.00;;;18.82;100.00
18790;BME280;9523;42.650;23.386;2022-08-16T05:43:09;94301.91;;;18.88;100.00
18790;BME280;9523;42.650;23.386;2022-08-16T05:45:37;94302.06;;;18.95;100.00
18790;BME280;9523;42.650;23.386;2022-08-16T05:48:04;94313.53;;;18.96;100.00
18790;BME280;9523;42.650;23.386;2022-08-16T05:50:34;94324.56;;;19.10;100.00
18790;BME280;9523;42.650;23.386;2022-08-16T05:53:01;94323.16;;;19.16;100.00
18790;BME280;9523;42.650;23.386;2022-08-16T05:55:28;94316.38;;;19.18;100.00
18790;BME280;9523;42.650;23.386;2022-08-16T05:57:55;94314.63;;;19.26;100.00
18790;BME280;9523;42.650;23.386;2022-08-16T06:00:22;94317.38;;;19.30;100.00
18790;BME280;9523;42.650;23.386;2022-08-16T06:02:51;94303.16;;;19.26;100.00
18790;BME280;9523;42.650;23.386;2022-08-16T06:05:18;94307.94;;;19.36;100.00
18790;BME280;9523;42.650;23.386;2022-08-16T06:07:45;94304.69;;;19.42;100.00
18790;BME280;9523;42.650;23.386;2022-08-16T06:10:16;94318.06;;;19.42;100.00
18790;BME280;9523;42.650;23.386;2022-08-16T06:12:43;94321.03;;;19.41;100.00
18790;BME280;9523;42.650;23.386;2022-08-16T06:15:13;94318.47;;;19.44;100.00
18790;BME280;9523;42.650;23.386;2022-08-16T06:17:40;94310.44;;;19.44;100.00
18790;BME280;9523;42.650;23.386;2022-08-16T06:20:11;94311.88;;;19.57;100.00
18790;BME280;9523;42.650;23.386;2022-08-16T06:22:39;94309.69;;;19.63;100.00
18790;BME280;9523;42.650;23.386;2022-08-16T06:25:06;94303.78;;;19.73;100.00
18790;BME280;9523;42.650;23.386;2022-08-16T06:27:33;94313.56;;;19.85;100.00
18790;BME280;9523;42.650;23.386;2022-08-16T06:30:00;94299.97;;;19.93;100.00
18790;BME280;9523;42.650;23.386;2022-08-16T06:32:27;94299.88;;;20.09;100.00
18790;BME280;9523;42.650;23.386;2022-08-16T06:34:55;94294.31;;;20.17;100.00
18790;BME280;9523;42.650;23.386;2022-08-16T06:37:23;94294.59;;;20.32;100.00
18790;BME280;9523;42.650;23.386;2022-08-16T06:39:50;94289.78;;;20.41;100.00
18790;BME280;9523;42.650;23.386;2022-08-16T06:42:17;94296.75;;;20.45;100.00
18790;BME280;9523;42.650;23.386;2022-08-16T06:44:45;94304.34;;;20.43;100.00
18790;BME280;9523;42.650;23.386;2022-08-16T06:47:13;94295.25;;;20.48;100.00
18790;BME280;9523;42.650;23.386;2022-08-16T06:49:41;94296.44;;;20.50;100.00
18790;BME280;9523;42.650;23.386;2022-08-16T06:52:08;94295.91;;;20.64;100.00
18790;BME280;9523;42.650;23.386;2022-08-16T06:54:37;94303.03;;;20.79;100.00
18790;BME280;9523;42.650;23.386;2022-08-16T06:57:04;94296.66;;;20.87;100.00
18790;BME280;9523;42.650;23.386;2022-08-16T06:59:32;94290.22;;;20.92;100.00
18790;BME280;9523;42.650;23.386;2022-08-16T07:02:00;94290.34;;;21.02;100.00
18790;BME280;9523;42.650;23.386;2022-08-16T07:04:27;94277.50;;;21.12;100.00
18790;BME280;9523;42.650;23.386;2022-08-16T07:06:53;94265.34;;;21.18;100.00
18790;BME280;9523;42.650;23.386;2022-08-16T07:09:21;94254.59;;;21.18;100.00
18790;BME280;9523;42.650;23.386;2022-08-16T07:11:50;94277.47;;;21.38;100.00
18790;BME280;9523;42.650;23.386;2022-08-16T07:14:17;94278.03;;;21.50;100.00
18790;BME280;9523;42.650;23.386;2022-08-16T07:16:44;94265.28;;;21.44;100.00
18790;BME280;9523;42.650;23.386;2022-08-16T07:19:11;94276.69;;;21.67;100.00
18790;BME280;9523;42.650;23.386;2022-08-16T07:21:41;94274.03;;;21.67;100.00
18790;BME280;9523;42.650;23.386;2022-08-16T07:24:08;94267.63;;;21.79;100.00
18790;BME280;9523;42.650;23.386;2022-08-16T07:26:35;94268.06;;;21.81;100.00
18790;BME280;9523;42.650;23.386;2022-08-16T07:29:04;94268.53;;;21.90;100.00
18790;BME280;9523;42.650;23.386;2022-08-16T07:31:31;94264.84;;;22.01;100.00
18790;BME280;9523;42.650;23.386;2022-08-16T07:34:00;94253.44;;;22.12;100.00
18790;BME280;9523;42.650;23.386;2022-08-16T07:36:27;94257.75;;;22.20;100.00
18790;BME280;9523;42.650;23.386;2022-08-16T07:38:54;94265.94;;;22.34;100.00
18790;BME280;9523;42.650;23.386;2022-08-16T07:41:21;94257.88;;;22.34;100.00
18790;BME280;9523;42.650;23.386;2022-08-16T07:43:48;94270.66;;;22.44;100.00
18790;BME280;9523;42.650;23.386;2022-08-16T07:46:16;94267.25;;;22.51;100.00
18790;BME280;9523;42.650;23.386;2022-08-16T07:48:43;94275.50;;;22.68;100.00
18790;BME280;9523;42.650;23.386;2022-08-16T07:51:10;94264.22;;;22.56;100.00
18790;BME280;9523;42.650;23.386;2022-08-16T07:53:37;94267.84;;;22.74;100.00
18790;BME280;9523;42.650;23.386;2022-08-16T07:56:05;94269.53;;;22.92;100.00
18790;BME280;9523;42.650;23.386;2022-08-16T07:58:32;94276.56;;;23.11;100.00
18790;BME280;9523;42.650;23.386;2022-08-16T08:00:59;94283.97;;;23.25;100.00
18790;BME280;9523;42.650;23.386;2022-08-16T08:03:31;94280.88;;;23.23;100.00
18790;BME280;9523;42.650;23.386;2022-08-16T08:06:05;94281.31;;;23.32;100.00
18790;BME280;9523;42.650;23.386;2022-08-16T08:08:34;94283.28;;;23.42;100.00
18790;BME280;9523;42.650;23.386;2022-08-16T08:11:01;94284.13;;;23.50;100.00
18790;BME280;9523;42.650;23.386;2022-08-16T08:13:28;94287.28;;;23.62;100.00
18790;BME280;9523;42.650;23.386;2022-08-16T08:15:55;94271.97;;;23.80;100.00
18790;BME280;9523;42.650;23.386;2022-08-16T08:18:22;94281.25;;;23.97;100.00
18790;BME280;9523;42.650;23.386;2022-08-16T08:20:51;94272.81;;;24.06;100.00
18790;BME280;9523;42.650;23.386;2022-08-16T08:23:18;94276.75;;;24.26;98.58
18790;BME280;9523;42.650;23.386;2022-08-16T08:25:48;94275.25;;;24.46;97.11
18790;BME280;9523;42.650;23.386;2022-08-16T08:28:16;94273.34;;;24.71;96.24
18790;BME280;9523;42.650;23.386;2022-08-16T08:30:44;94276.81;;;24.97;92.32
18790;BME280;9523;42.650;23.386;2022-08-16T08:33:11;94272.97;;;25.05;84.98
18790;BME280;9523;42.650;23.386;2022-08-16T08:35:38;94276.03;;;25.21;85.43
18790;BME280;9523;42.650;23.386;2022-08-16T08:38:07;94282.53;;;25.45;80.33
18790;BME280;9523;42.650;23.386;2022-08-16T08:40:34;94282.94;;;25.57;81.48
18790;BME280;9523;42.650;23.386;2022-08-16T08:43:05;94288.28;;;25.79;77.42
18790;BME280;9523;42.650;23.386;2022-08-16T08:45:36;94277.03;;;25.91;78.50
18790;BME280;9523;42.650;23.386;2022-08-16T08:48:03;94283.47;;;26.22;79.25
18790;BME280;9523;42.650;23.386;2022-08-16T08:50:34;94286.34;;;26.55;80.25
18790;BME280;9523;42.650;23.386;2022-08-16T08:53:02;94275.72;;;26.86;73.77
18790;BME280;9523;42.650;23.386;2022-08-16T08:55:30;94283.31;;;27.05;74.56
18790;BME280;9523;42.650;23.386;2022-08-16T08:57:58;94267.22;;;27.28;74.04
18790;BME280;9523;42.650;23.386;2022-08-16T09:00:25;94269.63;;;27.60;66.69
18790;BME280;9523;42.650;23.386;2022-08-16T09:02:55;94279.47;;;27.81;65.39
18790;BME280;9523;42.650;23.386;2022-08-16T09:05:23;94279.50;;;28.11;65.97
18790;BME280;9523;42.650;23.386;2022-08-16T09:07:52;94265.31;;;28.30;57.78
18790;BME280;9523;42.650;23.386;2022-08-16T09:10:20;94267.06;;;28.71;57.70
18790;BME280;9523;42.650;23.386;2022-08-16T09:12:49;94257.53;;;29.09;50.01
18790;BME280;9523;42.650;23.386;2022-08-16T09:15:16;94252.19;;;30.27;47.43
18790;BME280;9523;42.650;23.386;2022-08-16T09:17:45;94270.50;;;30.95;42.52
18790;BME280;9523;42.650;23.386;2022-08-16T09:20:13;94276.50;;;31.67;40.83
18790;BME280;9523;42.650;23.386;2022-08-16T09:22:41;94267.34;;;32.44;39.50
18790;BME280;9523;42.650;23.386;2022-08-16T09:25:09;94259.88;;;31.91;38.61
18790;BME280;9523;42.650;23.386;2022-08-16T09:27:36;94280.13;;;32.73;37.09
18790;BME280;9523;42.650;23.386;2022-08-16T09:30:06;94275.41;;;33.58;36.59
18790;BME280;9523;42.650;23.386;2022-08-16T09:32:39;94268.22;;;33.51;36.45
18790;BME280;9523;42.650;23.386;2022-08-16T09:35:09;94266.31;;;33.27;34.56
18790;BME280;9523;42.650;23.386;2022-08-16T09:37:36;94264.47;;;33.58;34.62
18790;BME280;9523;42.650;23.386;2022-08-16T09:40:08;94262.09;;;34.25;32.81
18790;BME280;9523;42.650;23.386;2022-08-16T09:42:35;94264.28;;;33.87;32.52
18790;BME280;9523;42.650;23.386;2022-08-16T09:45:05;94263.81;;;32.31;34.72
18790;BME280;9523;42.650;23.386;2022-08-16T09:47:36;94256.41;;;31.61;35.44
18790;BME280;9523;42.650;23.386;2022-08-16T09:50:06;94266.78;;;31.95;34.08
18790;BME280;9523;42.650;23.386;2022-08-16T09:52:33;94265.47;;;32.29;34.24
18790;BME280;9523;42.650;23.386;2022-08-16T09:55:03;94257.69;;;32.27;33.94
18790;BME280;9523;42.650;23.386;2022-08-16T09:57:30;94211.91;;;32.94;34.33
18790;BME280;9523;42.650;23.386;2022-08-16T09:59:57;94259.56;;;33.66;32.97
18790;BME280;9523;42.650;23.386;2022-08-16T10:02:27;94230.53;;;34.73;32.33
18790;BME280;9523;42.650;23.386;2022-08-16T10:04:55;94252.31;;;35.26;30.25
18790;BME280;9523;42.650;23.386;2022-08-16T10:07:26;94262.38;;;35.29;30.62
18790;BME280;9523;42.650;23.386;2022-08-16T10:09:56;94252.63;;;35.28;29.61
18790;BME280;9523;42.650;23.386;2022-08-16T10:12:24;94257.41;;;34.87;30.13
18790;BME280;9523;42.650;23.386;2022-08-16T10:15:10;94260.41;;;33.63;30.98
18790;BME280;9523;42.650;23.386;2022-08-16T10:17:38;94259.25;;;33.04;32.26
18790;BME280;9523;42.650;23.386;2022-08-16T10:20:08;94254.88;;;32.81;32.56
18790;BME280;9523;42.650;23.386;2022-08-16T10:22:36;94267.41;;;32.41;34.38
18790;BME280;9523;42.650;23.386;2022-08-16T10:25:03;94255.84;;;33.13;33.28
18790;BME280;9523;42.650;23.386;2022-08-16T10:27:34;94250.44;;;33.34;33.17
18790;BME280;9523;42.650;23.386;2022-08-16T10:30:01;94223.66;;;33.85;31.52
18790;BME280;9523;42.650;23.386;2022-08-16T10:32:29;94220.03;;;34.41;31.20
18790;BME280;9523;42.650;23.386;2022-08-16T10:34:58;94244.94;;;35.05;29.77
18790;BME280;9523;42.650;23.386;2022-08-16T10:37:25;94247.75;;;35.32;29.29
18790;BME280;9523;42.650;23.386;2022-08-16T10:39:52;94254.16;;;35.29;29.41
18790;BME280;9523;42.650;23.386;2022-08-16T10:42:22;94206.16;;;35.15;28.88
18790;BME280;9523;42.650;23.386;2022-08-16T10:44:50;94223.38;;;35.61;28.97
18790;BME280;9523;42.650;23.386;2022-08-16T10:47:16;94233.47;;;35.73;27.71
18790;BME280;9523;42.650;23.386;2022-08-16T10:49:45;94241.66;;;35.19;27.83
18790;BME280;9523;42.650;23.386;2022-08-16T10:52:13;94248.06;;;35.34;28.91
18790;BME280;9523;42.650;23.386;2022-08-16T10:54:41;94243.13;;;34.31;30.12
18790;BME280;9523;42.650;23.386;2022-08-16T10:57:08;94243.31;;;33.37;31.10
18790;BME280;9523;42.650;23.386;2022-08-16T10:59:35;94250.66;;;32.68;32.61
18790;BME280;9523;42.650;23.386;2022-08-16T11:02:05;94251.72;;;32.03;34.32
18790;BME280;9523;42.650;23.386;2022-08-16T11:04:34;94248.38;;;31.09;35.13
18790;BME280;9523;42.650;23.386;2022-08-16T11:07:00;94244.88;;;30.93;35.05
18790;BME280;9523;42.650;23.386;2022-08-16T11:09:31;94252.94;;;32.02;32.31
18790;BME280;9523;42.650;23.386;2022-08-16T11:11:58;94225.72;;;32.28;33.05
18790;BME280;9523;42.650;23.386;2022-08-16T11:14:25;94248.28;;;33.85;31.83
18790;BME280;9523;42.650;23.386;2022-08-16T11:16:57;94237.66;;;34.31;31.61
18790;BME280;9523;42.650;23.386;2022-08-16T11:19:29;94221.41;;;34.67;28.98
18790;BME280;9523;42.650;23.386;2022-08-16T11:21:56;94220.34;;;35.87;28.72
18790;BME280;9523;42.650;23.386;2022-08-16T11:24:23;94239.84;;;36.67;27.53
18790;BME280;9523;42.650;23.386;2022-08-16T11:26:53;94228.25;;;37.05;25.29
18790;BME280;9523;42.650;23.386;2022-08-16T11:29:21;94211.78;;;35.48;27.09
18790;BME280;9523;42.650;23.386;2022-08-16T11:31:48;94206.91;;;35.89;28.58
18790;BME280;9523;42.650;23.386;2022-08-16T11:34:15;94224.91;;;35.80;26.51
18790;BME280;9523;42.650;23.386;2022-08-16T11:36:43;94215.00;;;35.38;27.42
18790;BME280;9523;42.650;23.386;2022-08-16T11:39:13;94222.19;;;35.71;27.53
18790;BME280;9523;42.650;23.386;2022-08-16T11:41:43;94208.72;;;36.19;26.81
18790;BME280;9523;42.650;23.386;2022-08-16T11:44:13;94215.00;;;36.61;26.66
18790;BME280;9523;42.650;23.386;2022-08-16T11:46:41;94212.84;;;36.56;26.18
18790;BME280;9523;42.650;23.386;2022-08-16T11:49:08;94200.84;;;35.66;27.75
18790;BME280;9523;42.650;23.386;2022-08-16T11:51:38;94202.25;;;34.85;29.23
18790;BME280;9523;42.650;23.386;2022-08-16T11:54:08;94218.53;;;33.87;33.89
18790;BME280;9523;42.650;23.386;2022-08-16T11:56:36;94230.75;;;32.92;34.98
18790;BME280;9523;42.650;23.386;2022-08-16T11:59:03;94220.84;;;32.06;38.45
18790;BME280;9523;42.650;23.386;2022-08-16T12:01:32;94237.41;;;31.58;36.77
18790;BME280;9523;42.650;23.386;2022-08-16T12:04:01;94215.69;;;30.45;36.54
18790;BME280;9523;42.650;23.386;2022-08-16T12:06:29;94211.69;;;30.49;36.15
18790;BME280;9523;42.650;23.386;2022-08-16T12:08:58;94203.09;;;30.51;35.12
18790;BME280;9523;42.650;23.386;2022-08-16T12:11:26;94227.97;;;30.85;35.14
18790;BME280;9523;42.650;23.386;2022-08-16T12:13:55;94213.34;;;31.40;35.75
18790;BME280;9523;42.650;23.386;2022-08-16T12:16:23;94226.22;;;32.10;35.75
18790;BME280;9523;42.650;23.386;2022-08-16T12:18:51;94221.19;;;32.97;33.72
18790;BME280;9523;42.650;23.386;2022-08-16T12:21:18;94219.19;;;33.57;32.78
18790;BME280;9523;42.650;23.386;2022-08-16T12:23:45;94206.63;;;33.81;32.45
18790;BME280;9523;42.650;23.386;2022-08-16T12:26:12;94181.22;;;33.81;32.67
18790;BME280;9523;42.650;23.386;2022-08-16T12:28:39;94167.03;;;33.73;32.87
18790;BME280;9523;42.650;23.386;2022-08-16T12:31:06;94191.81;;;34.01;31.17
18790;BME280;9523;42.650;23.386;2022-08-16T12:33:33;94193.22;;;34.05;31.14
18790;BME280;9523;42.650;23.386;2022-08-16T12:36:02;94184.56;;;34.07;30.09
18790;BME280;9523;42.650;23.386;2022-08-16T12:38:29;94180.53;;;34.20;31.43
18790;BME280;9523;42.650;23.386;2022-08-16T12:40:56;94180.50;;;34.11;31.47
18790;BME280;9523;42.650;23.386;2022-08-16T12:43:23;94173.34;;;34.14;32.69
18790;BME280;9523;42.650;23.386;2022-08-16T12:45:51;94176.84;;;33.83;32.40
18790;BME280;9523;42.650;23.386;2022-08-16T12:48:22;94177.84;;;33.98;32.59
18790;BME280;9523;42.650;23.386;2022-08-16T12:51:17;94183.81;;;34.06;30.95
18790;BME280;9523;42.650;23.386;2022-08-16T12:53:46;94180.91;;;33.79;30.37
18790;BME280;9523;42.650;23.386;2022-08-16T12:56:17;94179.34;;;33.34;31.61
18790;BME280;9523;42.650;23.386;2022-08-16T12:58:45;94175.47;;;33.10;32.13
18790;BME280;9523;42.650;23.386;2022-08-16T13:01:16;94155.16;;;32.64;33.08